This is the latest recevied weather packets stored in our database for station/object WA6ODQ-13. If no packets are shown the sender has not sent any weather packets the latest 10 day(s).
| Time | Temp. | Humidity | Pressure | Rain* | Wind** | Luminosity | Snow |
|---|---|---|---|---|---|---|---|
| 1777487579 | 25° C | 46% | 1016.2 hPa | 0 mm | - | 667 W/m² | - |
| 1777487276 | 23.89° C | 49% | 1016.3 hPa | 0 mm | - | 656 W/m² | - |
| 1777486972 | 23.33° C | 50% | 1016.4 hPa | 0 mm | - | 648 W/m² | - |
| 1777486669 | 23.33° C | 50% | 1016.4 hPa | 0 mm | - | 642 W/m² | - |
| 1777486367 | 23.33° C | 49% | 1016.6 hPa | 0 mm | - | 632 W/m² | - |
| 1777486064 | 22.22° C | 52% | 1016.4 hPa | 0 mm | - | 624 W/m² | - |
| 1777485760 | 22.78° C | 52% | 1016.4 hPa | 0 mm | - | 614 W/m² | - |
| 1777485456 | 22.78° C | 54% | 1016.7 hPa | 0 mm | - | 604 W/m² | - |
| 1777485152 | 22.78° C | 51% | 1016.5 hPa | 0 mm | - | 594 W/m² | - |
| 1777484848 | 22.22° C | 55% | 1016.8 hPa | 0 mm | - | 584 W/m² | - |
| 1777484546 | 22.22° C | 56% | 1016.5 hPa | 0 mm | - | 573 W/m² | - |
| 1777484243 | 22.22° C | 53% | 1016.7 hPa | 0 mm | - | 562 W/m² | - |
| 1777483939 | 21.67° C | 54% | 1016.7 hPa | 0 mm | - | 550 W/m² | - |
| 1777483635 | 21.11° C | 58% | 1016.8 hPa | 0 mm | - | 538 W/m² | - |
| 1777483330 | 21.11° C | 58% | 1016.7 hPa | 0 mm | - | 525 W/m² | - |
| 1777483026 | 20.56° C | 60% | 1016.9 hPa | 0 mm | - | 515 W/m² | - |
| 1777482723 | 20.56° C | 61% | 1016.9 hPa | 0 mm | - | 502 W/m² | - |
| 1777482419 | 20.56° C | 62% | 1016.7 hPa | 0 mm | - | 488 W/m² | - |
| 1777482117 | 20° C | 62% | 1016.9 hPa | 0 mm | - | 475 W/m² | - |
| 1777481815 | 19.44° C | 63% | 1017.1 hPa | 0 mm | - | 461 W/m² | - |
| 1777481512 | 18.89° C | 66% | 1016.9 hPa | 0 mm | - | 447 W/m² | - |
| 1777481208 | 18.89° C | 68% | 1016.9 hPa | 0 mm | - | 433 W/m² | - |
| 1777480905 | 18.33° C | 69% | 1016.9 hPa | 0 mm | - | 230 W/m² | - |
| 1777480601 | 17.78° C | 69% | 1016.7 hPa | 0 mm | - | 73 W/m² | - |
| 1777480298 | 17.22° C | 70% | 1017 hPa | 0 mm | - | 50 W/m² | - |
* Rain latest hour (hover to see other rain measurements)
** Current wind speed in m/s (hover to see current wind gust speed)